Time;durP1;ratioP1;P1;durP2;ratioP2;P2;SDS_P1;SDS_P2;PMS_P1;PMS_P2;Temp;Humidity;BMP_temperature;BMP_pressure;BME280_temperature;BME280_humidity;BME280_pressure;Samples;Min_cycle;Max_cycle;Signal;HPM_P1;HPM_P2
2023/12/17 00:01:01;;;;;;;13.97;8.47;;;;;;;;;;4415887;32;317137;-72
2023/12/17 00:03:28;;;;;;;16.60;7.90;;;;;;;;;;4402925;32;317264;-72
2023/12/17 00:05:56;;;;;;;12.20;7.67;;;;;;;;;;4415500;32;316693;-75
2023/12/17 00:08:23;;;;;;;13.50;8.40;;;;;;;;;;4406753;32;317436;-75
2023/12/17 00:10:50;;;;;;;9.67;6.73;;;;;;;;;;4415924;32;316517;-77
2023/12/17 00:13:19;;;;;;;14.07;8.57;;;;;;;;;;4406074;32;315463;-76
2023/12/17 00:15:46;;;;;;;15.03;8.67;;;;;;;;;;4415087;32;316958;-75
2023/12/17 00:18:14;;;;;;;15.03;10.10;;;;;;;;;;4404821;32;317224;-75
2023/12/17 00:20:41;;;;;;;12.37;9.00;;;;;;;;;;4415950;32;329703;-75
2023/12/17 00:23:08;;;;;;;13.77;9.70;;;;;;;;;;4416161;32;317349;-72
2023/12/17 00:25:35;;;;;;;16.90;10.70;;;;;;;;;;4400543;32;417063;-72
2023/12/17 00:28:02;;;;;;;11.80;9.10;;;;;;;;;;4415891;32;336445;-73
2023/12/17 00:30:30;;;;;;;10.93;7.53;;;;;;;;;;4404422;32;329177;-72
2023/12/17 00:32:57;;;;;;;8.00;6.47;;;;;;;;;;4415726;32;317172;-74
2023/12/17 00:35:24;;;;;;;9.63;6.27;;;;;;;;;;4402750;32;316055;-73
2023/12/17 00:37:51;;;;;;;11.83;5.77;;;;;;;;;;4414795;32;316072;-76
2023/12/17 00:40:18;;;;;;;7.97;5.67;;;;;;;;;;4404185;32;341842;-74
2023/12/17 00:42:46;;;;;;;9.00;6.03;;;;;;;;;;4415547;32;327815;-76
2023/12/17 00:45:13;;;;;;;12.27;7.00;;;;;;;;;;4406642;32;316160;-75
2023/12/17 00:47:41;;;;;;;11.07;6.70;;;;;;;;;;4413373;32;317116;-74
2023/12/17 00:50:11;;;;;;;13.40;6.50;;;;;;;;;;4413685;32;317248;-75
2023/12/17 00:52:38;;;;;;;10.93;7.27;;;;;;;;;;4415633;32;317343;-74
2023/12/17 00:55:06;;;;;;;10.23;6.50;;;;;;;;;;4414381;32;317382;-75
2023/12/17 00:57:33;;;;;;;14.20;6.93;;;;;;;;;;4397907;32;417468;-74
2023/12/17 01:00:00;;;;;;;13.27;8.03;;;;;;;;;;4414455;32;317715;-74
2023/12/17 01:02:27;;;;;;;14.27;8.27;;;;;;;;;;4402495;32;317379;-74
2023/12/17 01:04:55;;;;;;;9.50;6.33;;;;;;;;;;4416268;32;317210;-73
2023/12/17 01:07:22;;;;;;;8.73;6.00;;;;;;;;;;4402582;32;316325;-73
2023/12/17 01:09:49;;;;;;;11.10;6.80;;;;;;;;;;4415258;32;320161;-74
2023/12/17 01:12:16;;;;;;;10.87;6.90;;;;;;;;;;4405398;32;317310;-75
2023/12/17 01:14:43;;;;;;;9.47;5.77;;;;;;;;;;4415891;32;317387;-73
2023/12/17 01:17:10;;;;;;;13.07;8.37;;;;;;;;;;4405446;32;316423;-72
2023/12/17 01:19:36;;;;;;;11.73;8.03;;;;;;;;;;4413297;32;317374;-74
2023/12/17 01:22:05;;;;;;;12.23;7.73;;;;;;;;;;4414209;32;317091;-76
2023/12/17 01:24:33;;;;;;;11.80;7.50;;;;;;;;;;4404306;32;321034;-76
2023/12/17 01:27:00;;;;;;;15.03;8.47;;;;;;;;;;4415569;32;317890;-74
2023/12/17 01:29:26;;;;;;;17.23;8.93;;;;;;;;;;4403372;32;317488;-73
2023/12/17 01:31:54;;;;;;;11.53;7.93;;;;;;;;;;4414962;32;317502;-72
2023/12/17 01:34:22;;;;;;;12.93;8.33;;;;;;;;;;4403981;32;320419;-74
2023/12/17 01:36:49;;;;;;;9.80;6.93;;;;;;;;;;4415400;32;317166;-77
2023/12/17 01:39:17;;;;;;;9.47;6.40;;;;;;;;;;4405291;32;316101;-75
2023/12/17 01:41:45;;;;;;;7.77;5.90;;;;;;;;;;4411793;32;316203;-75
2023/12/17 01:44:12;;;;;;;7.73;5.93;;;;;;;;;;4403709;32;316396;-76
2023/12/17 01:46:41;;;;;;;6.60;5.10;;;;;;;;;;4412580;32;316754;-76
2023/12/17 01:49:08;;;;;;;6.00;5.40;;;;;;;;;;4415127;32;316296;-76
2023/12/17 01:51:35;;;;;;;8.57;6.10;;;;;;;;;;4400204;32;415752;-77
2023/12/17 01:54:02;;;;;;;8.23;6.07;;;;;;;;;;4415178;32;316227;-77
2023/12/17 01:56:31;;;;;;;7.90;5.47;;;;;;;;;;4405361;32;315721;-73
2023/12/17 01:58:59;;;;;;;8.30;5.80;;;;;;;;;;4414988;32;316677;-73
2023/12/17 02:01:25;;;;;;;9.47;5.30;;;;;;;;;;4402507;32;316292;-71
2023/12/17 02:03:52;;;;;;;7.23;5.30;;;;;;;;;;4415028;32;316521;-73
2023/12/17 02:06:19;;;;;;;8.90;5.87;;;;;;;;;;4403920;32;316356;-73
2023/12/17 02:08:46;;;;;;;6.60;4.80;;;;;;;;;;4413426;32;316092;-76
2023/12/17 02:11:13;;;;;;;9.67;5.90;;;;;;;;;;4403222;32;316222;-73
2023/12/17 02:13:42;;;;;;;6.43;5.10;;;;;;;;;;4411422;32;316074;-74
2023/12/17 02:16:10;;;;;;;7.77;5.40;;;;;;;;;;4404386;32;316457;-75
2023/12/17 02:18:37;;;;;;;8.07;5.73;;;;;;;;;;4413241;32;316282;-77
2023/12/17 02:21:04;;;;;;;7.73;5.43;;;;;;;;;;4414583;32;315516;-75
2023/12/17 02:23:33;;;;;;;8.70;6.03;;;;;;;;;;4400786;32;316359;-75
2023/12/17 02:26:00;;;;;;;7.27;5.00;;;;;;;;;;4414428;32;316182;-75
2023/12/17 02:28:27;;;;;;;8.27;5.87;;;;;;;;;;4404801;32;316590;-73
2023/12/17 02:30:54;;;;;;;8.07;5.33;;;;;;;;;;4414538;32;316074;-74
2023/12/17 02:33:21;;;;;;;8.10;5.50;;;;;;;;;;4404458;32;316072;-76
2023/12/17 02:35:48;;;;;;;10.40;6.43;;;;;;;;;;4412762;32;315751;-76
2023/12/17 02:38:22;;;;;;;10.50;5.90;;;;;;;;;;4404205;32;317429;-75
2023/12/17 02:40:50;;;;;;;10.90;7.33;;;;;;;;;;4414787;32;317329;-73
2023/12/17 02:43:17;;;;;;;8.90;6.10;;;;;;;;;;4402705;32;316417;-77
2023/12/17 02:45:44;;;;;;;7.33;5.47;;;;;;;;;;4411218;32;316193;-77
2023/12/17 02:48:11;;;;;;;14.73;7.00;;;;;;;;;;4402516;32;317892;-75
2023/12/17 02:50:38;;;;;;;10.47;7.23;;;;;;;;;;4413991;32;316625;-76
2023/12/17 02:53:05;;;;;;;14.70;7.85;;;;;;;;;;4410140;32;317289;-75
2023/12/17 02:55:32;;;;;;;13.47;8.10;;;;;;;;;;4413945;32;317596;-73
2023/12/17 02:58:01;;;;;;;16.13;8.23;;;;;;;;;;4414286;32;317566;-73
2023/12/17 03:00:27;;;;;;;14.50;7.50;;;;;;;;;;4402066;32;317483;-74
2023/12/17 03:02:54;;;;;;;13.27;8.50;;;;;;;;;;4414213;32;317400;-75
2023/12/17 03:05:21;;;;;;;15.73;9.27;;;;;;;;;;4404487;32;317483;-74
2023/12/17 03:07:48;;;;;;;13.03;8.53;;;;;;;;;;4413132;32;317465;-74
2023/12/17 03:10:15;;;;;;;17.77;9.03;;;;;;;;;;4400600;32;317158;-75
2023/12/17 03:12:43;;;;;;;13.13;8.20;;;;;;;;;;4413529;32;317258;-75
2023/12/17 03:15:14;;;;;;;12.33;8.77;;;;;;;;;;4403347;32;317249;-74
2023/12/17 03:17:41;;;;;;;15.37;7.90;;;;;;;;;;4412584;32;317566;-75
2023/12/17 03:20:09;;;;;;;11.10;7.77;;;;;;;;;;4402988;32;317362;-73
2023/12/17 03:22:36;;;;;;;12.97;8.63;;;;;;;;;;4409896;32;317459;-73
2023/12/17 03:25:03;;;;;;;18.63;11.70;;;;;;;;;;4411412;32;351400;-74
2023/12/17 03:27:30;;;;;;;27.00;16.57;;;;;;;;;;4399413;32;419343;-73
2023/12/17 03:29:57;;;;;;;24.93;16.90;;;;;;;;;;4412480;32;329770;-73
2023/12/17 03:32:25;;;;;;;20.73;12.17;;;;;;;;;;4400547;32;318380;-72
2023/12/17 03:34:52;;;;;;;18.13;10.43;;;;;;;;;;4412755;32;318657;-73
2023/12/17 03:37:19;;;;;;;15.90;10.40;;;;;;;;;;4402165;32;350639;-73
2023/12/17 03:39:46;;;;;;;17.30;11.10;;;;;;;;;;4412205;32;317758;-73
2023/12/17 03:42:13;;;;;;;15.97;9.87;;;;;;;;;;4402401;32;318509;-74
2023/12/17 03:44:40;;;;;;;17.43;10.10;;;;;;;;;;4410331;32;317152;-73
2023/12/17 03:47:07;;;;;;;18.20;10.37;;;;;;;;;;4401403;32;318232;-72
2023/12/17 03:49:35;;;;;;;19.20;10.70;;;;;;;;;;4412528;32;318930;-73
2023/12/17 03:52:08;;;;;;;23.27;11.93;;;;;;;;;;4412649;32;318252;-72
2023/12/17 03:54:35;;;;;;;29.60;12.57;;;;;;;;;;4398248;32;418489;-72
2023/12/17 03:57:03;;;;;;;29.13;14.13;;;;;;;;;;4411324;32;318295;-72
2023/12/17 03:59:29;;;;;;;33.10;15.70;;;;;;;;;;4408989;32;318265;-73
2023/12/17 04:01:58;;;;;;;35.53;20.30;;;;;;;;;;4413796;32;318706;-72
2023/12/17 04:04:25;;;;;;;35.53;20.67;;;;;;;;;;4401139;32;318384;-73
2023/12/17 04:06:53;;;;;;;24.93;14.40;;;;;;;;;;4413384;32;318685;-72
2023/12/17 04:09:20;;;;;;;27.90;15.87;;;;;;;;;;4402317;32;325370;-76
2023/12/17 04:11:47;;;;;;;32.80;18.67;;;;;;;;;;4413993;32;318329;-73
2023/12/17 04:14:14;;;;;;;31.93;18.50;;;;;;;;;;4403092;32;329069;-73
2023/12/17 04:16:41;;;;;;;24.67;16.00;;;;;;;;;;4413879;32;318390;-74
2023/12/17 04:19:07;;;;;;;23.60;15.23;;;;;;;;;;4404006;32;318582;-74
2023/12/17 04:21:34;;;;;;;23.60;14.43;;;;;;;;;;4413415;32;317695;-77
2023/12/17 04:24:02;;;;;;;35.97;20.20;;;;;;;;;;4412419;32;318377;-74
2023/12/17 04:26:29;;;;;;;32.10;18.23;;;;;;;;;;4405300;32;318427;-77
2023/12/17 04:28:56;;;;;;;35.53;19.83;;;;;;;;;;4413621;32;318263;-78
2023/12/17 04:31:23;;;;;;;26.50;15.13;;;;;;;;;;4402224;32;318323;-79
2023/12/17 04:33:50;;;;;;;16.67;9.07;;;;;;;;;;4414686;32;318550;-75
2023/12/17 04:36:17;;;;;;;14.40;9.07;;;;;;;;;;4405281;32;317880;-75
2023/12/17 04:38:46;;;;;;;23.23;9.53;;;;;;;;;;4413359;32;317280;-75
2023/12/17 04:41:15;;;;;;;12.30;8.70;;;;;;;;;;4406591;32;317546;-75
2023/12/17 04:43:42;;;;;;;14.93;9.10;;;;;;;;;;4415607;32;333160;-73
2023/12/17 04:46:09;;;;;;;18.40;9.87;;;;;;;;;;4404739;32;366091;-73
2023/12/17 04:48:36;;;;;;;16.10;10.40;;;;;;;;;;4414101;32;316432;-72
2023/12/17 04:51:03;;;;;;;17.07;11.03;;;;;;;;;;4415867;32;318307;-72
2023/12/17 04:53:30;;;;;;;22.80;12.10;;;;;;;;;;4406205;32;318773;-72
2023/12/17 04:55:57;;;;;;;25.57;14.53;;;;;;;;;;4415412;32;318413;-72
2023/12/17 04:58:26;;;;;;;17.60;11.40;;;;;;;;;;4403460;32;318561;-72
2023/12/17 05:00:53;;;;;;;23.03;13.40;;;;;;;;;;4415936;32;318224;-73
2023/12/17 05:03:20;;;;;;;24.93;15.87;;;;;;;;;;4406111;32;318256;-73
2023/12/17 05:05:47;;;;;;;24.73;14.70;;;;;;;;;;4415764;32;318262;-72
2023/12/17 05:08:14;;;;;;;19.90;11.97;;;;;;;;;;4405087;32;317646;-73
2023/12/17 05:10:41;;;;;;;19.97;12.50;;;;;;;;;;4415671;32;319222;-72
2023/12/17 05:13:09;;;;;;;24.40;14.03;;;;;;;;;;4404566;32;318145;-73
2023/12/17 05:15:37;;;;;;;29.17;17.43;;;;;;;;;;4415756;32;318087;-73
2023/12/17 05:18:04;;;;;;;31.80;17.23;;;;;;;;;;4414379;32;357997;-73
2023/12/17 05:20:31;;;;;;;23.60;13.13;;;;;;;;;;4398793;32;417782;-73
2023/12/17 05:22:58;;;;;;;18.57;11.70;;;;;;;;;;4414102;32;318238;-73
2023/12/17 05:25:25;;;;;;;14.30;9.67;;;;;;;;;;4405936;32;318502;-72
2023/12/17 05:27:52;;;;;;;17.07;10.80;;;;;;;;;;4415921;32;317343;-78
2023/12/17 05:30:19;;;;;;;24.33;18.00;;;;;;;;;;4403196;32;318838;-76
2023/12/17 05:32:47;;;;;;;49.73;31.20;;;;;;;;;;4415431;32;318303;-78
2023/12/17 05:35:14;;;;;;;25.03;14.50;;;;;;;;;;4404437;32;318282;-76
2023/12/17 05:37:41;;;;;;;19.77;11.80;;;;;;;;;;4413423;32;341914;-77
2023/12/17 05:40:11;;;;;;;20.07;13.00;;;;;;;;;;4404442;32;318390;-77
2023/12/17 05:42:38;;;;;;;13.13;9.30;;;;;;;;;;4412217;32;318612;-77
2023/12/17 05:45:07;;;;;;;17.70;9.07;;;;;;;;;;4409897;32;317459;-75
2023/12/17 05:47:34;;;;;;;13.40;9.30;;;;;;;;;;4413979;32;317260;-79
2023/12/17 05:50:03;;;;;;;11.90;8.83;;;;;;;;;;4414081;32;317368;-78
2023/12/17 05:52:33;;;;;;;14.40;9.03;;;;;;;;;;4398929;32;354029;-78
2023/12/17 05:55:00;;;;;;;12.03;7.93;;;;;;;;;;4414981;32;317386;-78
2023/12/17 05:57:27;;;;;;;14.17;8.63;;;;;;;;;;4404779;32;317086;-79
2023/12/17 05:59:54;;;;;;;10.70;8.23;;;;;;;;;;4415335;32;317793;-76
2023/12/17 06:02:21;;;;;;;12.90;8.63;;;;;;;;;;4405212;32;317360;-76
2023/12/17 06:04:47;;;;;;;16.03;9.43;;;;;;;;;;4412553;32;317101;-74
2023/12/17 06:07:17;;;;;;;20.27;9.33;;;;;;;;;;4404561;32;317633;-75
2023/12/17 06:09:44;;;;;;;15.20;10.07;;;;;;;;;;4415559;32;317257;-77
2023/12/17 06:12:10;;;;;;;16.63;9.53;;;;;;;;;;4404614;32;318129;-75
2023/12/17 06:14:37;;;;;;;19.27;14.37;;;;;;;;;;4413180;32;316672;-75
2023/12/17 06:17:05;;;;;;;15.23;10.40;;;;;;;;;;4413635;32;318367;-75
2023/12/17 06:19:32;;;;;;;19.47;14.30;;;;;;;;;;4401603;32;417983;-75
2023/12/17 06:22:00;;;;;;;25.50;14.83;;;;;;;;;;4414936;32;318440;-80
2023/12/17 06:24:28;;;;;;;30.37;15.53;;;;;;;;;;4402016;32;319060;-79
2023/12/17 06:26:55;;;;;;;20.17;11.37;;;;;;;;;;4413596;32;318334;-78
2023/12/17 06:29:22;;;;;;;13.77;7.97;;;;;;;;;;4403551;32;317761;-78
2023/12/17 06:31:49;;;;;;;15.97;9.63;;;;;;;;;;4413754;32;317368;-78
2023/12/17 06:34:16;;;;;;;15.00;9.53;;;;;;;;;;4401019;32;317365;-76
2023/12/17 06:36:43;;;;;;;14.83;10.53;;;;;;;;;;4413490;32;317763;-76
2023/12/17 06:39:10;;;;;;;14.80;10.00;;;;;;;;;;4402049;32;340022;-75
2023/12/17 06:41:43;;;;;;;15.43;9.53;;;;;;;;;;4412719;32;318387;-77
2023/12/17 06:44:10;;;;;;;20.13;12.20;;;;;;;;;;4403873;32;317176;-75
2023/12/17 06:46:37;;;;;;;33.03;19.00;;;;;;;;;;4411595;32;318401;-76
2023/12/17 06:49:04;;;;;;;44.10;23.50;;;;;;;;;;4413006;32;317587;-77
2023/12/17 06:51:31;;;;;;;40.93;23.67;;;;;;;;;;4400574;32;417455;-76
2023/12/17 06:53:58;;;;;;;55.60;28.20;;;;;;;;;;4413462;32;318337;-77
2023/12/17 06:56:25;;;;;;;63.95;27.25;;;;;;;;;;4400645;32;324075;-78
2023/12/17 06:58:53;;;;;;;44.43;24.57;;;;;;;;;;4414255;32;317735;-77
2023/12/17 07:01:20;;;;;;;39.40;23.10;;;;;;;;;;4403261;32;318376;-78
2023/12/17 07:03:47;;;;;;;40.47;24.17;;;;;;;;;;4413419;32;318281;-78
2023/12/17 07:06:14;;;;;;;39.73;23.20;;;;;;;;;;4403401;32;318291;-76
2023/12/17 07:08:42;;;;;;;43.83;24.27;;;;;;;;;;4411508;32;318288;-78
2023/12/17 07:11:09;;;;;;;43.67;26.50;;;;;;;;;;4403839;32;318383;-74
2023/12/17 07:13:36;;;;;;;43.60;27.90;;;;;;;;;;4412365;32;317659;-79
2023/12/17 07:16:05;;;;;;;47.50;26.90;;;;;;;;;;4413091;32;318161;-76
2023/12/17 07:18:32;;;;;;;31.77;22.17;;;;;;;;;;4397675;32;419549;-77
2023/12/17 07:20:59;;;;;;;37.87;23.57;;;;;;;;;;4412699;32;320321;-76
2023/12/17 07:23:27;;;;;;;41.53;24.07;;;;;;;;;;4403153;32;318605;-76
2023/12/17 07:25:54;;;;;;;39.83;24.30;;;;;;;;;;4414023;32;318549;-74
2023/12/17 07:28:21;;;;;;;40.33;24.87;;;;;;;;;;4401605;32;318190;-75
2023/12/17 07:30:48;;;;;;;35.10;22.03;;;;;;;;;;4414341;32;318449;-75
2023/12/17 07:33:16;;;;;;;33.23;17.57;;;;;;;;;;4403829;32;318084;-73
2023/12/17 07:35:43;;;;;;;36.47;17.67;;;;;;;;;;4413697;32;333178;-73
2023/12/17 07:38:10;;;;;;;23.60;16.83;;;;;;;;;;4402934;32;318417;-74
2023/12/17 07:40:39;;;;;;;43.83;24.00;;;;;;;;;;4410200;32;317882;-74
2023/12/17 07:43:06;;;;;;;33.30;20.50;;;;;;;;;;4404100;32;318161;-73
2023/12/17 07:45:33;;;;;;;28.10;18.47;;;;;;;;;;4413519;32;318437;-74
2023/12/17 07:48:00;;;;;;;27.27;18.70;;;;;;;;;;4412640;32;318561;-74
2023/12/17 07:50:29;;;;;;;28.17;16.40;;;;;;;;;;4400235;32;318498;-73
2023/12/17 07:52:56;;;;;;;15.70;9.33;;;;;;;;;;4413353;32;318222;-75
2023/12/17 07:55:23;;;;;;;25.57;11.97;;;;;;;;;;4403720;32;317276;-74
2023/12/17 07:57:50;;;;;;;19.30;10.97;;;;;;;;;;4413648;32;317692;-74
2023/12/17 08:00:18;;;;;;;15.53;10.70;;;;;;;;;;4403623;32;319144;-74
2023/12/17 08:02:48;;;;;;;16.73;10.90;;;;;;;;;;4413929;32;318463;-74
2023/12/17 08:05:15;;;;;;;27.23;11.47;;;;;;;;;;4403507;32;318124;-73
2023/12/17 08:07:44;;;;;;;21.10;10.03;;;;;;;;;;4414506;32;318295;-75
2023/12/17 08:10:11;;;;;;;14.87;8.17;;;;;;;;;;4405508;32;318489;-73
2023/12/17 08:12:38;;;;;;;9.23;5.57;;;;;;;;;;4412938;32;358866;-75
2023/12/17 08:15:06;;;;;;;8.60;6.17;;;;;;;;;;4416489;32;316379;-74
2023/12/17 08:17:33;;;;;;;12.27;7.10;;;;;;;;;;4404034;32;416052;-73
2023/12/17 08:20:00;;;;;;;18.23;11.37;;;;;;;;;;4417047;32;317215;-75
2023/12/17 08:22:27;;;;;;;23.63;13.07;;;;;;;;;;4404159;32;318221;-73
2023/12/17 08:24:55;;;;;;;26.67;13.20;;;;;;;;;;4416528;32;318530;-74
2023/12/17 08:27:22;;;;;;;28.13;15.53;;;;;;;;;;4406801;32;318242;-74
2023/12/17 08:29:50;;;;;;;20.23;12.20;;;;;;;;;;4416264;32;318175;-73
2023/12/17 08:32:17;;;;;;;24.40;13.97;;;;;;;;;;4402861;32;335378;-73
2023/12/17 08:34:43;;;;;;;79.00;42.73;;;;;;;;;;4414066;32;340331;-73
2023/12/17 08:37:10;;;;;;;28.07;15.00;;;;;;;;;;4404261;32;318290;-74
2023/12/17 08:39:37;;;;;;;28.53;14.57;;;;;;;;;;4416175;32;318251;-74
2023/12/17 08:42:06;;;;;;;22.97;13.47;;;;;;;;;;4415896;32;318155;-73
2023/12/17 08:44:35;;;;;;;23.40;14.73;;;;;;;;;;4401174;32;417686;-74
2023/12/17 08:47:02;;;;;;;24.67;14.03;;;;;;;;;;4416438;32;318439;-75
2023/12/17 08:49:29;;;;;;;33.10;15.50;;;;;;;;;;4404686;32;318348;-75
2023/12/17 08:51:56;;;;;;;26.43;14.50;;;;;;;;;;4415735;32;317551;-74
2023/12/17 08:54:25;;;;;;;21.60;13.00;;;;;;;;;;4403920;32;318225;-74
2023/12/17 08:56:52;;;;;;;21.87;15.07;;;;;;;;;;4414660;32;318474;-75
2023/12/17 08:59:21;;;;;;;17.60;11.60;;;;;;;;;;4405058;32;318433;-73
2023/12/17 09:01:49;;;;;;;20.63;12.57;;;;;;;;;;4416285;32;318344;-76
2023/12/17 09:04:17;;;;;;;16.33;11.27;;;;;;;;;;4402672;32;330448;-75
2023/12/17 09:06:45;;;;;;;17.70;12.07;;;;;;;;;;4416047;32;318461;-73
2023/12/17 09:09:12;;;;;;;17.10;10.60;;;;;;;;;;4405953;32;318362;-74
2023/12/17 09:11:39;;;;;;;13.63;9.30;;;;;;;;;;4415708;32;318256;-75
2023/12/17 09:14:07;;;;;;;18.73;11.83;;;;;;;;;;4405632;32;317532;-75
2023/12/17 09:16:35;;;;;;;20.90;13.87;;;;;;;;;;4411909;32;318386;-73
2023/12/17 09:19:03;;;;;;;17.20;10.40;;;;;;;;;;4414096;32;318497;-73
2023/12/17 09:21:29;;;;;;;22.90;10.40;;;;;;;;;;4404931;32;318524;-73
2023/12/17 09:23:56;;;;;;;16.93;11.17;;;;;;;;;;4414932;32;318421;-73
2023/12/17 09:26:23;;;;;;;29.40;10.23;;;;;;;;;;4402095;32;318435;-73
2023/12/17 09:28:50;;;;;;;20.90;9.93;;;;;;;;;;4415539;32;318598;-74
2023/12/17 09:31:17;;;;;;;10.73;6.83;;;;;;;;;;4405340;32;317151;-73
2023/12/17 09:33:46;;;;;;;17.80;10.17;;;;;;;;;;4415433;32;317363;-74
2023/12/17 09:36:13;;;;;;;17.07;10.47;;;;;;;;;;4404262;32;318475;-74
2023/12/17 09:38:42;;;;;;;18.47;9.73;;;;;;;;;;4412390;32;318162;-74
2023/12/17 09:41:09;;;;;;;16.43;11.17;;;;;;;;;;4404552;32;317284;-76
2023/12/17 09:43:36;;;;;;;14.60;10.60;;;;;;;;;;4415269;32;318319;-74
2023/12/17 09:46:03;;;;;;;17.73;10.87;;;;;;;;;;4415405;32;318348;-75
2023/12/17 09:48:30;;;;;;;18.40;11.70;;;;;;;;;;4402667;32;318263;-75
2023/12/17 09:50:58;;;;;;;16.47;9.63;;;;;;;;;;4415367;32;318641;-75
2023/12/17 09:53:25;;;;;;;15.05;9.40;;;;;;;;;;4404559;32;321166;-75
2023/12/17 09:55:52;;;;;;;24.37;12.13;;;;;;;;;;4415368;32;317315;-75
2023/12/17 09:58:19;;;;;;;22.10;13.70;;;;;;;;;;4402804;32;318344;-76
2023/12/17 10:00:46;;;;;;;14.50;9.97;;;;;;;;;;4415105;32;318353;-76
2023/12/17 10:03:14;;;;;;;15.43;9.00;;;;;;;;;;4405421;32;317487;-76
2023/12/17 10:05:41;;;;;;;20.53;9.80;;;;;;;;;;4415386;32;316634;-76
2023/12/17 10:08:10;;;;;;;11.90;8.80;;;;;;;;;;4406131;32;317575;-75
2023/12/17 10:10:37;;;;;;;14.23;9.27;;;;;;;;;;4413047;32;317270;-74
2023/12/17 10:13:04;;;;;;;19.90;10.50;;;;;;;;;;4413231;32;316542;-74
2023/12/17 10:15:36;;;;;;;14.57;9.90;;;;;;;;;;4401812;32;417408;-75
2023/12/17 10:18:04;;;;;;;20.13;13.00;;;;;;;;;;4414735;32;317478;-74
2023/12/17 10:20:31;;;;;;;19.10;12.53;;;;;;;;;;4397982;32;418094;-76
2023/12/17 10:22:59;;;;;;;19.97;12.70;;;;;;;;;;4414838;32;318581;-75
2023/12/17 10:25:28;;;;;;;19.73;13.20;;;;;;;;;;4404738;32;318142;-76
2023/12/17 10:27:57;;;;;;;17.80;12.50;;;;;;;;;;4413697;32;318569;-75
2023/12/17 10:30:29;;;;;;;24.37;13.60;;;;;;;;;;4402399;32;318501;-76
2023/12/17 10:32:56;;;;;;;22.43;11.77;;;;;;;;;;4414426;32;318271;-75
2023/12/17 10:35:24;;;;;;;22.43;14.17;;;;;;;;;;4402342;32;358524;-76
2023/12/17 10:37:54;;;;;;;35.23;18.03;;;;;;;;;;4414254;32;318270;-75
2023/12/17 10:40:22;;;;;;;37.77;20.30;;;;;;;;;;4401386;32;318739;-75
2023/12/17 10:42:50;;;;;;;20.40;13.37;;;;;;;;;;4412888;32;318649;-77
2023/12/17 10:45:20;;;;;;;22.90;15.13;;;;;;;;;;4404308;32;318449;-75
2023/12/17 10:47:51;;;;;;;26.70;14.53;;;;;;;;;;4414684;32;318588;-76
2023/12/17 10:50:19;;;;;;;24.07;14.60;;;;;;;;;;4402167;32;318725;-74
2023/12/17 10:52:47;;;;;;;22.53;14.30;;;;;;;;;;4414483;32;318515;-74
2023/12/17 10:55:15;;;;;;;21.33;12.90;;;;;;;;;;4402633;32;317875;-73
2023/12/17 10:57:46;;;;;;;27.13;16.00;;;;;;;;;;4414418;32;318586;-75
2023/12/17 11:00:18;;;;;;;20.20;13.57;;;;;;;;;;4402327;32;318282;-74
2023/12/17 11:02:49;;;;;;;21.10;13.37;;;;;;;;;;4413112;32;318654;-74
2023/12/17 11:05:17;;;;;;;19.87;12.60;;;;;;;;;;4403512;32;318738;-75
2023/12/17 11:07:44;;;;;;;20.47;11.50;;;;;;;;;;4414729;32;318506;-75
2023/12/17 11:10:11;;;;;;;22.13;13.33;;;;;;;;;;4403313;32;318651;-74
2023/12/17 11:12:40;;;;;;;27.73;12.77;;;;;;;;;;4411649;32;318385;-76
2023/12/17 11:15:08;;;;;;;33.57;14.53;;;;;;;;;;4403074;32;318564;-76
2023/12/17 11:17:38;;;;;;;18.83;11.87;;;;;;;;;;4412402;32;318671;-76
2023/12/17 11:20:07;;;;;;;22.37;11.93;;;;;;;;;;4412837;32;319224;-76
2023/12/17 11:22:36;;;;;;;21.53;14.87;;;;;;;;;;4397161;32;417536;-75
2023/12/17 11:25:04;;;;;;;24.17;15.37;;;;;;;;;;4413874;32;318556;-77
2023/12/17 11:27:32;;;;;;;26.03;13.03;;;;;;;;;;4400759;32;417901;-76
2023/12/17 11:29:59;;;;;;;21.33;13.10;;;;;;;;;;4412616;32;317907;-77
2023/12/17 11:32:27;;;;;;;24.70;13.57;;;;;;;;;;4400490;32;318501;-74
2023/12/17 11:34:57;;;;;;;20.10;13.00;;;;;;;;;;4412332;32;318628;-76
2023/12/17 11:37:29;;;;;;;21.53;13.50;;;;;;;;;;4403500;32;318578;-76
2023/12/17 11:39:56;;;;;;;22.70;12.40;;;;;;;;;;4411796;32;317823;-77
2023/12/17 11:42:22;;;;;;;24.30;13.50;;;;;;;;;;4400913;32;318646;-77
2023/12/17 11:44:51;;;;;;;22.87;14.37;;;;;;;;;;4416117;32;342684;-75
2023/12/17 11:47:19;;;;;;;20.50;14.40;;;;;;;;;;4406038;32;318491;-76
2023/12/17 11:49:46;;;;;;;21.33;13.17;;;;;;;;;;4415888;32;318386;-76
2023/12/17 11:52:15;;;;;;;23.43;12.90;;;;;;;;;;4405686;32;318523;-77
2023/12/17 11:54:43;;;;;;;23.00;14.87;;;;;;;;;;4415857;32;318668;-76
2023/12/17 11:57:20;;;;;;;25.97;15.67;;;;;;;;;;4406243;32;332037;-73
2023/12/17 11:59:48;;;;;;;20.07;13.87;;;;;;;;;;4416030;32;344711;-78
2023/12/17 12:02:16;;;;;;;23.43;14.63;;;;;;;;;;4406005;32;318558;-76
2023/12/17 12:04:44;;;;;;;21.73;16.07;;;;;;;;;;4415891;32;318535;-81
2023/12/17 12:07:12;;;;;;;22.33;13.87;;;;;;;;;;4407022;32;318462;-78
2023/12/17 12:09:40;;;;;;;24.10;14.20;;;;;;;;;;4416687;32;318869;-76
2023/12/17 12:12:17;;;;;;;26.80;15.57;;;;;;;;;;4405372;32;318978;-73
2023/12/17 12:14:46;;;;;;;33.03;15.83;;;;;;;;;;4416496;32;318537;-79
2023/12/17 12:17:38;;;;;;;25.73;14.83;;;;;;;;;;4405862;32;318523;-75
2023/12/17 12:20:07;;;;;;;32.07;16.00;;;;;;;;;;4415794;32;341946;-76
2023/12/17 12:22:35;;;;;;;25.67;12.07;;;;;;;;;;4400595;32;417521;-76
2023/12/17 12:25:04;;;;;;;26.30;15.70;;;;;;;;;;4414465;32;318573;-76
2023/12/17 12:27:31;;;;;;;92.63;47.00;;;;;;;;;;4402073;32;418694;-79
2023/12/17 12:30:01;;;;;;;28.10;20.07;;;;;;;;;;4415425;32;318827;-79
2023/12/17 12:32:29;;;;;;;35.43;19.03;;;;;;;;;;4402866;32;319083;-79
2023/12/17 12:34:56;;;;;;;54.63;22.53;;;;;;;;;;4416251;32;318322;-78
2023/12/17 12:37:33;;;;;;;33.33;18.50;;;;;;;;;;4404428;32;318171;-78
2023/12/17 12:40:01;;;;;;;34.30;20.60;;;;;;;;;;4415242;32;318299;-79
2023/12/17 12:42:30;;;;;;;25.40;14.73;;;;;;;;;;4403143;32;318524;-79
2023/12/17 12:44:57;;;;;;;22.60;15.03;;;;;;;;;;4415575;32;318513;-78
2023/12/17 12:47:24;;;;;;;22.10;15.40;;;;;;;;;;4405568;32;318308;-77
2023/12/17 12:49:52;;;;;;;21.57;15.03;;;;;;;;;;4415812;32;318710;-77
2023/12/17 12:52:21;;;;;;;27.40;19.00;;;;;;;;;;4405957;32;318576;-78
2023/12/17 12:54:49;;;;;;;26.57;16.07;;;;;;;;;;4412575;32;318381;-79
2023/12/17 12:57:17;;;;;;;26.67;15.60;;;;;;;;;;4404691;32;318393;-77
2023/12/17 12:59:45;;;;;;;29.20;15.77;;;;;;;;;;4414824;32;318514;-78
2023/12/17 13:02:12;;;;;;;23.40;13.83;;;;;;;;;;4406168;32;318429;-77
2023/12/17 13:04:39;;;;;;;29.90;18.80;;;;;;;;;;4413685;32;318670;-76
2023/12/17 13:07:06;;;;;;;30.03;18.10;;;;;;;;;;4405858;32;337132;-75
2023/12/17 13:09:35;;;;;;;48.40;26.20;;;;;;;;;;4415737;32;318504;-79
2023/12/17 13:12:02;;;;;;;24.93;14.07;;;;;;;;;;4414439;32;359691;-78
2023/12/17 13:14:30;;;;;;;31.33;19.43;;;;;;;;;;4402933;32;342669;-78
2023/12/17 13:16:58;;;;;;;37.13;17.23;;;;;;;;;;4414508;32;318336;-78
2023/12/17 13:19:25;;;;;;;139.87;84.13;;;;;;;;;;4405358;32;318455;-78
2023/12/17 13:21:53;;;;;;;25.03;16.53;;;;;;;;;;4416046;32;319403;-78
2023/12/17 13:24:21;;;;;;;39.87;23.23;;;;;;;;;;4402199;32;320978;-76
2023/12/17 13:26:50;;;;;;;72.87;40.27;;;;;;;;;;4414439;32;317967;-77
2023/12/17 13:29:17;;;;;;;35.77;21.03;;;;;;;;;;4405311;32;325035;-79
2023/12/17 13:31:45;;;;;;;42.43;22.90;;;;;;;;;;4415055;32;318490;-78
2023/12/17 13:34:17;;;;;;;36.53;21.10;;;;;;;;;;4404044;32;318425;-78
2023/12/17 13:36:44;;;;;;;42.73;21.50;;;;;;;;;;4414528;32;317894;-77
2023/12/17 13:39:10;;;;;;;29.70;15.80;;;;;;;;;;4402300;32;398102;-77
2023/12/17 13:41:38;;;;;;;72.83;35.33;;;;;;;;;;4415123;32;318594;-79
2023/12/17 13:44:07;;;;;;;38.63;17.07;;;;;;;;;;4414916;32;318843;-78
2023/12/17 13:46:34;;;;;;;24.20;12.13;;;;;;;;;;4398675;32;418898;-77
2023/12/17 13:49:01;;;;;;;35.00;19.17;;;;;;;;;;4413433;32;340999;-78
2023/12/17 13:51:29;;;;;;;30.10;16.70;;;;;;;;;;4403180;32;318383;-79
2023/12/17 13:53:56;;;;;;;36.40;14.73;;;;;;;;;;4415341;32;318467;-77
2023/12/17 13:56:23;;;;;;;19.07;12.07;;;;;;;;;;4401757;32;318519;-78
2023/12/17 13:58:50;;;;;;;122.60;63.77;;;;;;;;;;4414178;32;318555;-78
2023/12/17 14:01:20;;;;;;;86.47;48.77;;;;;;;;;;4404153;32;319582;-79
2023/12/17 14:03:47;;;;;;;337.17;154.37;;;;;;;;;;4413590;32;318733;-79
2023/12/17 14:06:15;;;;;;;364.50;170.23;;;;;;;;;;4403136;32;320770;-79
2023/12/17 14:08:44;;;;;;;101.73;52.97;;;;;;;;;;4414751;32;320376;-76
2023/12/17 14:11:10;;;;;;;122.37;56.47;;;;;;;;;;4403119;32;319801;-78